Nickerson, NE (68044)

12:05 AM CDT del 28 Agosto 2014 (GMT -0500)
APRSWXNET Fremont NE US | Change Station
CLOSE
Current Station
Stazione meteo personale
Location: Fremont, NE
Altitudine: 1190 ft
Stazioni meteo nelle vicinanze
Avvisi attivi: Flash Flood Watch

Alt. 1190 ft 41.45 °N, 96.48 °W | Updated 31 minutes ago

Pioggia
Pioggia
71 °F
Sembra 71 °F
N
0
Vento Variabile Vento da Ovest
Gusts 0.0 mph

Oggi
Massima -- | Minima -- °F
--% Possibilità di precip.
Ieri
Massima -- | Minima -- °F
Precip. -- in
6:47 AM 8:05 PM
Luna crescente, 6% visible
Pressione 30.06 in
Visibilità 5.0 miglia
Nuvole Nubi sparse 400 ft
Molto nuvoloso 900 ft
Coperto 3100 ft
Punto di rugiada 71 °F
Umidità 100%
Piovosità -999.00 in
Spessore del manto nevoso Non disponibile.
Raggi UV 0 fuori da 12
Polline 2.00 fuori da 12
Qualità dell'aria Non disponibile.
Flu Activity Non disponibile.
METAR KFET 280455Z AUTO 09007KT 5SM -RA SCT004 BKN009 OVC031 22/21 A3006 RMK AO2 P0003 T02180208

More Conditions Fewer Conditions

Pressione 30.06 in
Visibilità 5.0 miglia
Nuvole Nubi sparse 400 ft
Molto nuvoloso 900 ft
Coperto 3100 ft
Punto di rugiada 71 °F
Umidità 100%
Piovosità -999.00 in
Spessore del manto nevoso Non disponibile.
Raggi UV 0 fuori da 12
Polline 2.00 fuori da 12
Qualità dell'aria Non disponibile.
Flu Activity Non disponibile.
METAR KFET 280455Z AUTO 09007KT 5SM -RA SCT004 BKN009 OVC031 22/21 A3006 RMK AO2 P0003 T02180208

More Conditions Fewer Conditions

10-Day Weather Forecast

Almanac

Astronomia

Aug. 28, 2014 Alba Tramonto
Ora attuale 06:47 CDT 20:05 CDT
Crepuscolo civile 06:19 CDT 20:34 CDT
Crepuscolo nautico 05:44 CDT 21:08 CDT
Crepuscolo astronomico 05:08 CDT 21:44 CDT
Luna 09:44 CDT 21:27 CDT
Estensione della luce visibile 14h 14m
Lunghezza del giorno
13h 17m
Tomorrow will be 2m 39s shorter.
Luna crescente, 6% of the Moon is Illuminated
Oggi
Luna crescente
Set 2
Primo quarto
Set 8
Luna piena
Set 15
Ultimo quarto
Set 24
Nuovo

Gli estremi di oggi

State Highs State Lows

Community

WunderPhotos

Upload Photos

1,747,908 foto caricate!

Nearby

Profondità neve

Stazione Profondità Altitudine
Non sono state evidenziate nuove nevicate

Attività sismica

Città  Distanza Mag. Data & Ora
Non sono state riportate attività sismiche nelle vicinanze.
Minimo Magnitudo Mostrato è 2.5.

Temperature delle acque costiere

Località Temperatura
Nessun dato dalle stazioni

Stazioni meteo nelle vicinanze